createdAt,value
2022-10-13T00:01:58.217Z,13.49
2022-10-13T00:04:24.742Z,13.47
2022-10-13T00:06:51.282Z,13.47
2022-10-13T00:09:17.800Z,13.46
2022-10-13T00:11:44.365Z,13.45
2022-10-13T00:14:11.014Z,13.45
2022-10-13T00:16:37.689Z,13.45
2022-10-13T00:19:04.302Z,13.44
2022-10-13T00:21:31.013Z,13.43
2022-10-13T00:23:57.813Z,13.41
2022-10-13T00:26:25.821Z,13.42
2022-10-13T00:28:53.310Z,13.41
2022-10-13T00:31:24.948Z,13.42
2022-10-13T00:33:52.873Z,13.40
2022-10-13T00:36:21.318Z,13.40
2022-10-13T00:38:47.868Z,13.39
2022-10-13T00:41:14.907Z,13.39
2022-10-13T00:46:35.652Z,13.38
2022-10-13T00:49:09.708Z,13.37
2022-10-13T00:51:42.356Z,13.39
2022-10-13T00:54:11.515Z,13.39
2022-10-13T00:56:39.665Z,13.39
2022-10-13T00:59:13.647Z,13.36
2022-10-13T01:01:40.266Z,13.35
2022-10-13T01:04:06.908Z,13.36
2022-10-13T01:06:34.404Z,13.34
2022-10-13T01:09:00.897Z,13.33
2022-10-13T01:22:18.599Z,13.19
2022-10-13T01:25:03.266Z,13.13
2022-10-13T01:30:19.403Z,13.09
2022-10-13T01:38:33.960Z,13.43
2022-10-13T01:41:27.280Z,13.06
2022-10-13T01:46:43.928Z,12.98
2022-10-13T01:49:14.543Z,12.95
2022-10-13T01:51:42.246Z,12.90
2022-10-13T01:54:09.002Z,12.87
2022-10-13T01:56:35.597Z,12.82
2022-10-13T01:59:10.406Z,12.79
2022-10-13T02:07:32.578Z,12.71
2022-10-13T02:10:39.057Z,12.66
2022-10-13T02:13:08.536Z,12.71
2022-10-13T02:15:40.649Z,12.71
2022-10-13T02:18:09.403Z,12.71
2022-10-13T02:20:36.769Z,12.72
2022-10-13T02:23:09.528Z,12.72
2022-10-13T02:25:36.874Z,12.73
2022-10-13T02:28:04.211Z,12.73
2022-10-13T02:30:33.458Z,12.74
2022-10-13T02:33:02.850Z,12.73
2022-10-13T02:35:31.007Z,12.73
2022-10-13T02:37:57.560Z,12.72
2022-10-13T02:40:24.764Z,12.71
2022-10-13T02:42:51.411Z,12.71
2022-10-13T02:45:17.961Z,12.68
2022-10-13T02:47:44.660Z,12.69
2022-10-13T02:50:11.586Z,12.68
2022-10-13T02:52:38.342Z,12.65
2022-10-13T02:55:05.682Z,12.64
2022-10-13T02:57:32.624Z,12.62
2022-10-13T02:59:59.633Z,12.61
2022-10-13T03:02:27.601Z,12.63
2022-10-13T03:04:54.649Z,12.60
2022-10-13T03:07:21.206Z,12.61
2022-10-13T03:09:47.777Z,12.63
2022-10-13T03:12:14.317Z,12.63
2022-10-13T03:14:40.887Z,12.63
2022-10-13T03:17:12.462Z,12.63
2022-10-13T03:19:39.912Z,12.63
2022-10-13T03:22:06.533Z,12.63
2022-10-13T03:24:33.065Z,12.62
2022-10-13T03:26:59.577Z,12.61
2022-10-13T03:29:26.213Z,12.61
2022-10-13T03:31:52.722Z,12.60
2022-10-13T03:34:20.346Z,12.60
2022-10-13T03:36:47.085Z,12.60
2022-10-13T03:39:14.027Z,12.62
2022-10-13T03:41:40.552Z,12.64
2022-10-13T03:44:07.625Z,12.64
2022-10-13T03:46:34.239Z,12.65
2022-10-13T03:49:00.870Z,12.67
2022-10-13T03:51:27.415Z,12.68
2022-10-13T03:53:54.257Z,12.68
2022-10-13T03:56:25.227Z,12.70
2022-10-13T03:58:55.398Z,12.72
2022-10-13T04:01:23.627Z,12.72
2022-10-13T04:03:52.202Z,12.74
2022-10-13T04:06:18.758Z,12.74
2022-10-13T04:08:45.324Z,12.74
2022-10-13T04:11:14.142Z,12.75
2022-10-13T04:13:41.531Z,12.75
2022-10-13T04:16:13.734Z,12.76
2022-10-13T04:18:44.498Z,12.76
2022-10-13T04:21:15.003Z,12.76
2022-10-13T04:23:41.654Z,12.77
2022-10-13T04:26:16.371Z,12.76
2022-10-13T04:28:42.967Z,12.76
2022-10-13T04:31:09.744Z,12.75
2022-10-13T04:33:36.386Z,12.76
2022-10-13T04:36:05.528Z,12.75
2022-10-13T04:38:32.193Z,12.73
2022-10-13T04:40:58.771Z,12.70
2022-10-13T04:43:25.313Z,12.67
2022-10-13T04:45:51.875Z,12.66
2022-10-13T04:48:18.388Z,12.64
2022-10-13T04:50:45.006Z,12.60
2022-10-13T04:53:14.245Z,12.55
2022-10-13T04:55:44.746Z,12.52
2022-10-13T04:58:11.275Z,12.47
2022-10-13T05:00:37.834Z,12.43
2022-10-13T05:03:04.435Z,12.40
2022-10-13T05:05:30.986Z,12.36
2022-10-13T05:07:57.522Z,12.34
2022-10-13T05:10:24.087Z,12.35
2022-10-13T05:12:51.681Z,12.36
2022-10-13T05:15:18.256Z,12.33
2022-10-13T05:17:44.881Z,12.32
2022-10-13T05:20:11.945Z,12.29
2022-10-13T05:22:38.537Z,12.24
2022-10-13T05:25:05.406Z,12.17
2022-10-13T05:27:31.952Z,12.13
2022-10-13T05:29:58.561Z,12.10
2022-10-13T05:32:25.172Z,12.06
2022-10-13T05:34:51.794Z,12.02
2022-10-13T05:37:18.433Z,11.98
2022-10-13T05:39:48.775Z,11.95
2022-10-13T05:42:15.573Z,11.93
2022-10-13T05:44:42.859Z,11.91
2022-10-13T05:47:09.376Z,11.92
2022-10-13T05:49:39.645Z,11.93
2022-10-13T05:52:10.362Z,11.95
2022-10-13T05:54:42.163Z,11.97
2022-10-13T05:57:17.705Z,11.99
2022-10-13T05:59:52.437Z,11.99
2022-10-13T06:02:24.175Z,12.00
2022-10-13T06:04:53.886Z,11.98
2022-10-13T06:07:20.730Z,11.96
2022-10-13T06:09:47.352Z,11.96
2022-10-13T06:12:13.946Z,11.95
2022-10-13T06:14:40.531Z,11.96
2022-10-13T06:17:07.871Z,11.98
2022-10-13T06:19:34.600Z,11.99
2022-10-13T06:22:03.633Z,12.01
2022-10-13T06:24:30.569Z,12.01
2022-10-13T06:26:57.228Z,12.02
2022-10-13T06:29:23.820Z,12.03
2022-10-13T06:31:50.544Z,12.04
2022-10-13T06:34:17.085Z,12.06
2022-10-13T06:36:43.690Z,12.06
2022-10-13T06:39:10.389Z,12.06
2022-10-13T06:41:36.936Z,12.08
2022-10-13T06:44:03.669Z,12.10
2022-10-13T06:46:30.234Z,12.11
2022-10-13T06:48:56.746Z,12.12
2022-10-13T06:51:23.321Z,12.11
2022-10-13T06:53:49.885Z,12.12
2022-10-13T06:56:16.449Z,12.12
2022-10-13T06:58:42.987Z,12.12
2022-10-13T07:01:12.822Z,12.16
2022-10-13T07:03:39.362Z,12.17
2022-10-13T07:06:07.429Z,12.19
2022-10-13T07:08:34.981Z,12.20
2022-10-13T07:11:15.914Z,12.21
2022-10-13T07:13:46.473Z,12.23
2022-10-13T07:16:14.853Z,12.25
2022-10-13T07:18:41.599Z,12.27
2022-10-13T07:21:08.170Z,12.28
2022-10-13T07:23:34.777Z,12.29
2022-10-13T07:26:01.902Z,12.31
2022-10-13T07:28:28.709Z,12.32
2022-10-13T07:30:55.570Z,12.32
2022-10-13T07:33:22.650Z,12.33
2022-10-13T07:35:49.311Z,12.35
2022-10-13T07:38:16.006Z,12.37
2022-10-13T07:40:42.591Z,12.38
2022-10-13T07:43:09.185Z,12.39
2022-10-13T07:45:36.170Z,12.40
2022-10-13T07:48:02.776Z,12.40
2022-10-13T07:50:29.902Z,12.42
2022-10-13T07:52:56.495Z,12.41
2022-10-13T07:55:23.141Z,12.42
2022-10-13T07:57:49.682Z,12.42
2022-10-13T08:00:16.684Z,12.42
2022-10-13T08:02:43.223Z,12.41
2022-10-13T08:05:09.926Z,12.41
2022-10-13T08:07:39.279Z,12.41
2022-10-13T08:10:06.412Z,12.42
2022-10-13T08:12:35.575Z,12.41
2022-10-13T08:15:06.062Z,12.40
2022-10-13T08:17:33.328Z,12.37
2022-10-13T08:19:59.924Z,12.37
2022-10-13T08:22:28.447Z,12.37
2022-10-13T08:24:56.014Z,12.39
2022-10-13T08:27:32.830Z,12.42
2022-10-13T08:30:11.811Z,12.47
2022-10-13T08:32:38.385Z,12.52
2022-10-13T08:35:05.288Z,12.60
2022-10-13T08:37:31.905Z,12.65
2022-10-13T08:39:59.193Z,12.69
2022-10-13T08:42:25.812Z,12.74
2022-10-13T08:50:26.250Z,12.95
2022-10-13T08:53:04.594Z,12.97
2022-10-13T08:55:39.637Z,13.02
2022-10-13T08:58:14.872Z,13.03
2022-10-13T09:00:42.033Z,13.04
2022-10-13T09:03:22.664Z,13.00
2022-10-13T09:08:54.346Z,13.04
2022-10-13T09:11:21.199Z,13.11
2022-10-13T09:13:47.787Z,13.21
2022-10-13T09:16:15.397Z,13.28
2022-10-13T09:18:42.094Z,13.32
2022-10-13T09:21:11.326Z,13.35
2022-10-13T09:23:41.041Z,13.39
2022-10-13T09:26:16.071Z,13.42
2022-10-13T09:28:42.880Z,13.44
2022-10-13T09:31:24.695Z,13.47
2022-10-13T09:33:59.316Z,13.50
2022-10-13T09:36:26.292Z,13.57
2022-10-13T09:39:14.109Z,13.67
2022-10-13T09:41:42.310Z,13.84
2022-10-13T09:44:16.658Z,13.96
2022-10-13T09:46:55.400Z,14.07
2022-10-13T09:52:02.818Z,14.17
2022-10-13T09:57:41.993Z,14.23
2022-10-13T10:00:21.901Z,14.26
2022-10-13T10:05:57.628Z,14.29
2022-10-13T10:14:32.854Z,14.73
2022-10-13T10:17:31.003Z,14.95
2022-10-13T10:23:13.980Z,15.06
2022-10-13T10:25:47.107Z,15.18
2022-10-13T10:28:53.469Z,15.40
2022-10-13T10:39:55.086Z,15.91
2022-10-13T10:45:01.527Z,16.15
2022-10-13T10:47:36.343Z,16.26
2022-10-13T10:50:06.410Z,16.28
2022-10-13T10:55:30.165Z,16.34
2022-10-13T11:00:55.662Z,16.51
2022-10-13T11:08:47.539Z,16.72
2022-10-13T11:11:36.428Z,16.79
2022-10-13T11:19:39.310Z,16.89
2022-10-13T11:27:26.221Z,16.87
2022-10-13T11:29:57.303Z,16.88
2022-10-13T11:40:34.196Z,16.39
2022-10-13T11:51:53.494Z,16.41
2022-10-13T11:54:41.660Z,16.26
2022-10-13T11:57:20.259Z,16.33
2022-10-13T11:59:49.335Z,16.33
2022-10-13T12:02:19.162Z,16.34
2022-10-13T12:07:40.517Z,16.21
2022-10-13T12:10:17.367Z,16.14
2022-10-13T12:12:49.544Z,16.13
2022-10-13T12:18:30.004Z,15.91
2022-10-13T12:20:59.490Z,15.95
2022-10-13T12:23:27.132Z,15.93
2022-10-13T12:25:58.482Z,15.90
2022-10-13T12:28:28.133Z,15.95
2022-10-13T12:30:59.029Z,15.90
2022-10-13T12:36:17.705Z,16.05
2022-10-13T12:38:49.599Z,16.16
2022-10-13T12:41:20.078Z,16.26
2022-10-13T12:43:46.806Z,16.33
2022-10-13T12:46:13.403Z,16.37
2022-10-13T12:48:40.330Z,16.39
2022-10-13T12:53:52.469Z,16.56
2022-10-13T12:56:27.607Z,16.69
2022-10-13T12:58:54.963Z,16.85
2022-10-13T13:01:30.334Z,16.96
2022-10-13T13:04:01.277Z,17.04
2022-10-13T13:06:33.349Z,17.07
2022-10-13T13:09:18.790Z,17.09
2022-10-13T13:11:45.406Z,17.09
2022-10-13T13:14:35.695Z,16.99
2022-10-13T13:19:49.972Z,17.21
2022-10-13T13:22:16.714Z,17.32
2022-10-13T13:24:43.710Z,17.42
2022-10-13T13:27:28.018Z,17.39
2022-10-13T13:29:55.850Z,17.34
2022-10-13T13:32:25.387Z,17.30
2022-10-13T13:34:52.003Z,17.26
2022-10-13T13:37:37.584Z,17.14
2022-10-13T13:40:05.666Z,17.08
2022-10-13T13:42:33.036Z,16.94
2022-10-13T13:44:59.622Z,16.87
2022-10-13T13:47:28.660Z,16.81
2022-10-13T13:49:56.452Z,16.85
2022-10-13T13:52:25.312Z,16.89
2022-10-13T13:54:52.635Z,16.95
2022-10-13T13:57:20.340Z,16.96
2022-10-13T13:59:47.567Z,16.93
2022-10-13T14:02:18.850Z,16.89
2022-10-13T14:04:45.845Z,16.90
2022-10-13T14:07:12.885Z,16.86
2022-10-13T14:09:39.445Z,16.83
2022-10-13T14:12:06.140Z,16.80
2022-10-13T14:14:33.114Z,16.75
2022-10-13T14:17:01.227Z,16.77
2022-10-13T14:19:27.870Z,16.78
2022-10-13T14:21:54.425Z,16.79
2022-10-13T14:24:21.156Z,16.85
2022-10-13T14:26:47.720Z,16.92
2022-10-13T14:29:14.741Z,16.94
2022-10-13T14:31:41.432Z,16.95
2022-10-13T14:34:08.186Z,16.91
2022-10-13T14:36:34.968Z,16.92
2022-10-13T14:39:01.511Z,16.91
2022-10-13T14:41:28.162Z,16.87
2022-10-13T14:43:56.145Z,16.85
2022-10-13T14:46:23.357Z,16.77
2022-10-13T14:48:50.319Z,16.76
2022-10-13T14:51:17.369Z,16.75
2022-10-13T14:53:45.379Z,16.76
2022-10-13T14:56:17.614Z,16.75
2022-10-13T14:58:44.592Z,16.77
2022-10-13T15:01:11.193Z,16.79
2022-10-13T15:03:37.818Z,16.82
2022-10-13T15:06:04.547Z,16.87
2022-10-13T15:08:31.099Z,16.83
2022-10-13T15:11:02.565Z,16.83
2022-10-13T15:13:29.935Z,16.84
2022-10-13T15:15:57.686Z,16.87
2022-10-13T15:18:28.982Z,16.88
2022-10-13T15:20:55.889Z,16.89
2022-10-13T15:23:22.723Z,16.88
2022-10-13T15:25:51.249Z,16.85
2022-10-13T15:28:18.221Z,16.80
2022-10-13T15:30:45.717Z,16.74
2022-10-13T15:33:12.247Z,16.69
2022-10-13T15:35:38.811Z,16.64
2022-10-13T15:38:05.421Z,16.61
2022-10-13T15:40:33.690Z,16.56
2022-10-13T15:43:00.550Z,16.51
2022-10-13T15:45:27.407Z,16.47
2022-10-13T15:47:53.930Z,16.39
2022-10-13T15:50:20.648Z,16.33
2022-10-13T15:52:47.209Z,16.28
2022-10-13T15:55:13.918Z,16.23
2022-10-13T15:57:40.582Z,16.22
2022-10-13T16:00:09.697Z,16.19
2022-10-13T16:02:36.356Z,16.14
2022-10-13T16:05:05.331Z,16.11
2022-10-13T16:07:32.544Z,16.09
2022-10-13T16:09:59.283Z,16.06
2022-10-13T16:12:28.001Z,16.06
2022-10-13T16:14:54.861Z,16.02
2022-10-13T16:17:21.875Z,15.99
2022-10-13T16:19:48.717Z,15.97
2022-10-13T16:22:15.415Z,15.93
2022-10-13T16:24:41.954Z,15.89
2022-10-13T16:27:08.557Z,15.85
2022-10-13T16:29:35.138Z,15.79
2022-10-13T16:32:01.694Z,15.75
2022-10-13T16:34:28.234Z,15.70
2022-10-13T16:36:54.961Z,15.64
2022-10-13T16:39:23.373Z,15.58
2022-10-13T16:41:51.299Z,15.51
2022-10-13T16:44:18.156Z,15.44
2022-10-13T16:46:45.314Z,15.37
2022-10-13T16:49:12.934Z,15.30
2022-10-13T16:51:39.490Z,15.23
2022-10-13T16:54:06.243Z,15.16
2022-10-13T16:56:33.207Z,15.09
2022-10-13T16:59:04.017Z,15.04
2022-10-13T17:01:32.536Z,14.98
2022-10-13T17:03:59.198Z,14.90
2022-10-13T17:06:27.847Z,14.86
2022-10-13T17:08:55.219Z,14.80
2022-10-13T17:11:25.064Z,14.74
2022-10-13T17:13:51.945Z,14.48
2022-10-13T17:16:19.297Z,14.58
2022-10-13T17:18:46.573Z,14.54
2022-10-13T17:21:16.027Z,14.49
2022-10-13T17:23:48.115Z,14.40
2022-10-13T17:26:16.984Z,14.35
2022-10-13T17:28:43.707Z,14.27
2022-10-13T17:33:50.071Z,14.16
2022-10-13T17:38:56.314Z,14.04
2022-10-13T17:41:24.264Z,13.98
2022-10-13T17:43:52.024Z,13.92
2022-10-13T17:46:36.288Z,13.87
2022-10-13T17:49:04.590Z,13.80
2022-10-13T17:51:31.222Z,13.76
2022-10-13T17:53:59.609Z,13.73
2022-10-13T17:56:26.864Z,13.68
2022-10-13T17:58:53.872Z,13.61
2022-10-13T18:01:24.527Z,13.59
2022-10-13T18:03:54.364Z,13.52
2022-10-13T18:06:22.249Z,13.46
2022-10-13T18:08:50.605Z,13.42
2022-10-13T18:11:19.872Z,13.39
2022-10-13T18:13:47.001Z,13.34
2022-10-13T18:16:18.214Z,13.29
2022-10-13T18:18:45.757Z,13.24
2022-10-13T18:21:14.663Z,13.22
2022-10-13T18:23:42.050Z,13.17
2022-10-13T18:26:12.557Z,13.14
2022-10-13T18:28:40.523Z,13.09
2022-10-13T18:31:09.863Z,13.07
2022-10-13T18:33:36.853Z,13.02
2022-10-13T18:36:23.697Z,12.91
2022-10-13T18:38:52.098Z,12.94
2022-10-13T18:41:22.251Z,12.90
2022-10-13T18:43:48.921Z,12.87
2022-10-13T18:46:15.461Z,12.82
2022-10-13T18:48:42.265Z,12.77
2022-10-13T18:51:13.265Z,12.74
2022-10-13T18:53:43.633Z,12.70
2022-10-13T18:56:14.294Z,12.66
2022-10-13T18:58:41.341Z,12.63
2022-10-13T19:01:10.352Z,12.61
2022-10-13T19:03:38.635Z,12.57
2022-10-13T19:06:07.363Z,12.55
2022-10-13T19:08:34.751Z,12.52
2022-10-13T19:11:01.597Z,12.49
2022-10-13T19:13:28.263Z,12.47
2022-10-13T19:16:02.930Z,12.42
2022-10-13T19:18:29.757Z,12.43
2022-10-13T19:20:56.360Z,12.41
2022-10-13T19:23:22.973Z,12.40
2022-10-13T19:25:49.786Z,12.39
2022-10-13T19:28:16.709Z,12.35
2022-10-13T19:30:43.766Z,12.33
2022-10-13T19:33:12.281Z,12.31
2022-10-13T19:35:45.240Z,12.29
2022-10-13T19:38:12.319Z,12.28
2022-10-13T19:40:43.587Z,12.25
2022-10-13T19:43:11.107Z,12.23
2022-10-13T19:45:44.479Z,12.19
2022-10-13T19:48:11.116Z,12.17
2022-10-13T19:50:37.891Z,12.15
2022-10-13T19:53:05.000Z,12.13
2022-10-13T19:55:36.912Z,12.12
2022-10-13T19:58:03.493Z,12.10
2022-10-13T20:00:30.256Z,12.10
2022-10-13T20:02:56.796Z,12.09
2022-10-13T20:05:25.447Z,12.07
2022-10-13T20:07:52.280Z,12.07
2022-10-13T20:10:18.903Z,12.07
2022-10-13T20:12:45.491Z,12.05
2022-10-13T20:15:12.223Z,12.05
2022-10-13T20:17:38.777Z,12.05
2022-10-13T20:20:06.590Z,12.05
2022-10-13T20:22:33.697Z,12.02
2022-10-13T20:25:00.258Z,12.01
2022-10-13T20:27:26.868Z,12.00
2022-10-13T20:29:53.389Z,11.99
2022-10-13T20:32:20.069Z,11.98
2022-10-13T20:34:46.689Z,11.98
2022-10-13T20:37:13.250Z,11.94
2022-10-13T20:39:39.883Z,11.93
2022-10-13T20:42:06.539Z,11.92
2022-10-13T20:44:33.229Z,11.91
2022-10-13T20:47:00.213Z,11.90
2022-10-13T20:49:27.123Z,11.89
2022-10-13T20:51:53.690Z,11.88
2022-10-13T20:54:20.492Z,11.88
2022-10-13T20:56:47.337Z,11.87
2022-10-13T20:59:15.625Z,11.86
2022-10-13T21:01:42.518Z,11.84
2022-10-13T21:04:09.120Z,11.83
2022-10-13T21:06:36.520Z,11.82
2022-10-13T21:09:05.581Z,11.85
2022-10-13T21:11:32.562Z,11.82
2022-10-13T21:13:59.129Z,11.85
2022-10-13T21:16:27.926Z,11.85
2022-10-13T21:18:56.154Z,11.83
2022-10-13T21:21:26.727Z,11.82
2022-10-13T21:23:56.691Z,11.78
2022-10-13T21:26:24.204Z,11.59
2022-10-13T21:28:51.626Z,11.67
2022-10-13T21:31:20.740Z,11.67
2022-10-13T21:33:48.174Z,11.65
2022-10-13T21:36:18.743Z,11.66
2022-10-13T21:38:49.989Z,11.66
2022-10-13T21:41:16.605Z,11.64
2022-10-13T21:43:43.231Z,11.63
2022-10-13T21:46:12.187Z,11.63
2022-10-13T21:48:39.366Z,11.61
2022-10-13T21:53:56.693Z,11.59
2022-10-13T21:56:23.894Z,11.57
2022-10-13T21:58:50.595Z,11.56
2022-10-13T22:01:18.647Z,11.54
2022-10-13T22:03:47.559Z,11.52
2022-10-13T22:06:18.972Z,11.50
2022-10-13T22:08:48.373Z,11.47
2022-10-13T22:11:15.856Z,11.45
2022-10-13T22:13:42.398Z,11.42
2022-10-13T22:16:19.033Z,11.41
2022-10-13T22:18:45.966Z,11.38
2022-10-13T22:21:16.000Z,11.36
2022-10-13T22:23:42.779Z,11.18
2022-10-13T22:26:10.122Z,11.28
2022-10-13T22:28:37.681Z,11.28
2022-10-13T22:31:06.366Z,11.29
2022-10-13T22:33:34.734Z,11.28
2022-10-13T22:36:06.387Z,11.28
2022-10-13T22:38:32.916Z,11.29
2022-10-13T22:41:04.153Z,11.30
2022-10-13T22:43:30.902Z,11.29
2022-10-13T22:45:57.707Z,11.29
2022-10-13T22:48:24.550Z,11.29
2022-10-13T22:50:51.096Z,11.29
2022-10-13T22:53:17.718Z,11.30
2022-10-13T22:55:44.321Z,11.28
2022-10-13T22:58:10.908Z,11.29
2022-10-13T23:00:38.687Z,11.29
2022-10-13T23:03:06.080Z,11.30
2022-10-13T23:05:32.757Z,11.30
2022-10-13T23:07:59.429Z,11.31
2022-10-13T23:10:26.078Z,11.31
2022-10-13T23:12:52.613Z,11.32
2022-10-13T23:15:19.198Z,11.34
2022-10-13T23:17:45.779Z,11.34
2022-10-13T23:20:12.700Z,11.35
2022-10-13T23:22:39.223Z,11.35
2022-10-13T23:25:06.133Z,11.36
2022-10-13T23:27:32.717Z,11.36
2022-10-13T23:29:59.233Z,11.36
2022-10-13T23:32:25.879Z,11.35
2022-10-13T23:34:52.415Z,11.35
2022-10-13T23:37:19.194Z,11.35
2022-10-13T23:39:46.042Z,11.37
2022-10-13T23:42:12.581Z,11.36
2022-10-13T23:44:39.174Z,11.38
2022-10-13T23:47:05.731Z,11.38
2022-10-13T23:49:32.313Z,11.39
2022-10-13T23:51:58.919Z,11.40
2022-10-13T23:54:25.503Z,11.40
2022-10-13T23:56:52.043Z,11.40
2022-10-13T23:59:18.631Z,11.41
